RYR266G LROP-LGSK
Flight info
| Callsign | RYR266G |
|---|---|
| Flight time | 1h 7m |
| Altitude | 36000 |
| Route | POLUN1K/08R POLUN DCT TIMUR/N0463F350 N731 LUKOV/N0462F360 N731 LETNI DCT ERANA/N0460F350 UL737 TSL DCT EVIKO |
| Aircraft | B738/M-SDE2E3FGHIRWXY/LB1 |
Departure
| Time | 2026-04-14 09:11 |
|---|---|
| Airport | Bucharest Henri Coandă International Airport (LROP) |
Arrival
| Time | 2026-04-14 10:19 |
|---|---|
| Airport | Skiathos Island National Airport (LGSK) |
| Time | Latitude | Longitude | Altitude | Speed | Heading |
|---|---|---|---|---|---|
| 2026-04-14 08:51 | 44.56895 | 26.08927 | 321 ft | 0 kts | 173° |
| 2026-04-14 09:07 | 44.56886 | 26.08929 | 320 ft | 2 kts | 173° |
| 2026-04-14 09:07 | 44.56865 | 26.08931 | 321 ft | 4 kts | 183° |
| 2026-04-14 09:08 | 44.56846 | 26.08907 | 321 ft | 4 kts | 247° |
| 2026-04-14 09:08 | 44.56840 | 26.08864 | 321 ft | 5 kts | 261° |
| 2026-04-14 09:08 | 44.56834 | 26.08806 | 321 ft | 7 kts | 261° |
| 2026-04-14 09:08 | 44.56828 | 26.08735 | 321 ft | 8 kts | 265° |
| 2026-04-14 09:09 | 44.56823 | 26.08651 | 321 ft | 9 kts | 264° |
| 2026-04-14 09:09 | 44.56794 | 26.08574 | 322 ft | 10 kts | 198° |
| 2026-04-14 09:09 | 44.56726 | 26.08575 | 320 ft | 10 kts | 175° |
| 2026-04-14 09:09 | 44.56661 | 26.08584 | 320 ft | 9 kts | 173° |
| 2026-04-14 09:10 | 44.56598 | 26.08595 | 320 ft | 9 kts | 173° |
| 2026-04-14 09:10 | 44.56543 | 26.08626 | 322 ft | 9 kts | 120° |
| 2026-04-14 09:10 | 44.56546 | 26.08751 | 321 ft | 36 kts | 84° |
| 2026-04-14 09:10 | 44.56605 | 26.09533 | 321 ft | 122 kts | 84° |
| 2026-04-14 09:11 | 44.56702 | 26.11014 | 626 ft | 171 kts | 85° |
| 2026-04-14 09:11 | 44.56809 | 26.12644 | 1965 ft | 162 kts | 85° |
| 2026-04-14 09:11 | 44.56910 | 26.14298 | 2753 ft | 188 kts | 87° |
| 2026-04-14 09:11 | 44.57118 | 26.16162 | 3416 ft | 199 kts | 75° |
| 2026-04-14 09:12 | 44.57943 | 26.17764 | 3935 ft | 214 kts | 41° |
| 2026-04-14 09:12 | 44.59416 | 26.18583 | 4153 ft | 245 kts | 8° |
| 2026-04-14 09:12 | 44.61161 | 26.18195 | 4497 ft | 269 kts | 338° |
| 2026-04-14 09:12 | 44.62681 | 26.16584 | 4997 ft | 281 kts | 307° |
| 2026-04-14 09:13 | 44.63501 | 26.14150 | 5841 ft | 278 kts | 278° |
| 2026-04-14 09:13 | 44.63466 | 26.11511 | 6931 ft | 266 kts | 253° |
| 2026-04-14 09:13 | 44.62667 | 26.09181 | 7756 ft | 267 kts | 236° |
| 2026-04-14 09:13 | 44.61605 | 26.06995 | 8506 ft | 274 kts | 234° |
| 2026-04-14 09:14 | 44.60523 | 26.04772 | 9367 ft | 276 kts | 237° |
| 2026-04-14 09:14 | 44.59489 | 26.02472 | 10180 ft | 281 kts | 239° |
| 2026-04-14 09:14 | 44.58479 | 26.00120 | 10776 ft | 292 kts | 240° |
| 2026-04-14 09:14 | 44.57380 | 25.97554 | 10931 ft | 318 kts | 240° |
| 2026-04-14 09:15 | 44.56188 | 25.94794 | 11113 ft | 342 kts | 239° |
| 2026-04-14 09:15 | 44.54906 | 25.91854 | 11274 ft | 364 kts | 239° |
| 2026-04-14 09:15 | 44.53566 | 25.88807 | 11634 ft | 376 kts | 239° |
| 2026-04-14 09:15 | 44.52173 | 25.85657 | 12181 ft | 383 kts | 238° |
| 2026-04-14 09:16 | 44.50765 | 25.82483 | 13040 ft | 380 kts | 238° |
| 2026-04-14 09:16 | 44.49361 | 25.79325 | 13698 ft | 385 kts | 238° |
| 2026-04-14 09:16 | 44.47931 | 25.76112 | 14302 ft | 388 kts | 238° |
| 2026-04-14 09:16 | 44.46500 | 25.72906 | 14981 ft | 389 kts | 238° |
| 2026-04-14 09:17 | 44.45074 | 25.69717 | 15526 ft | 393 kts | 239° |
| 2026-04-14 09:17 | 44.43611 | 25.66449 | 16120 ft | 395 kts | 239° |
| 2026-04-14 09:17 | 44.42142 | 25.63168 | 16650 ft | 400 kts | 239° |
| 2026-04-14 09:17 | 44.40653 | 25.59848 | 17207 ft | 402 kts | 239° |
| 2026-04-14 09:18 | 44.39162 | 25.56524 | 17799 ft | 405 kts | 239° |
| 2026-04-14 09:18 | 44.37675 | 25.53215 | 18299 ft | 409 kts | 239° |
| 2026-04-14 09:18 | 44.36151 | 25.49827 | 18797 ft | 412 kts | 239° |
| 2026-04-14 09:18 | 44.34619 | 25.46428 | 19282 ft | 414 kts | 239° |
| 2026-04-14 09:19 | 44.33075 | 25.43004 | 19755 ft | 416 kts | 239° |
| 2026-04-14 09:19 | 44.31543 | 25.39611 | 20207 ft | 419 kts | 239° |
| 2026-04-14 09:19 | 44.29975 | 25.36142 | 20663 ft | 421 kts | 239° |
| 2026-04-14 09:19 | 44.28402 | 25.32666 | 21104 ft | 423 kts | 239° |
| 2026-04-14 09:20 | 44.26837 | 25.29212 | 21529 ft | 426 kts | 239° |
| 2026-04-14 09:20 | 44.25245 | 25.25702 | 21948 ft | 428 kts | 239° |
| 2026-04-14 09:20 | 44.23636 | 25.22171 | 22360 ft | 431 kts | 238° |
| 2026-04-14 09:20 | 44.21961 | 25.18684 | 22763 ft | 433 kts | 237° |
| 2026-04-14 09:21 | 44.20232 | 25.15303 | 23151 ft | 435 kts | 235° |
| 2026-04-14 09:21 | 44.18403 | 25.11908 | 23535 ft | 438 kts | 234° |
| 2026-04-14 09:21 | 44.16512 | 25.08562 | 23892 ft | 440 kts | 233° |
| 2026-04-14 09:21 | 44.14568 | 25.05230 | 24204 ft | 442 kts | 232° |
| 2026-04-14 09:22 | 44.12622 | 25.01899 | 24537 ft | 444 kts | 232° |
| 2026-04-14 09:22 | 44.10706 | 24.98569 | 24854 ft | 445 kts | 233° |
| 2026-04-14 09:22 | 44.08786 | 24.95178 | 25161 ft | 446 kts | 233° |
| 2026-04-14 09:22 | 44.06878 | 24.91766 | 25466 ft | 448 kts | 233° |
| 2026-04-14 09:23 | 44.04990 | 24.88365 | 25771 ft | 449 kts | 234° |
| 2026-04-14 09:23 | 44.03081 | 24.84917 | 26063 ft | 450 kts | 234° |
| 2026-04-14 09:23 | 44.01163 | 24.81453 | 26353 ft | 451 kts | 233° |
| 2026-04-14 09:23 | 43.99247 | 24.77998 | 26679 ft | 451 kts | 233° |
| 2026-04-14 09:24 | 43.97329 | 24.74546 | 27153 ft | 448 kts | 233° |
| 2026-04-14 09:24 | 43.95454 | 24.71178 | 27609 ft | 445 kts | 233° |
| 2026-04-14 09:24 | 43.93567 | 24.67793 | 28061 ft | 443 kts | 233° |
| 2026-04-14 09:24 | 43.91678 | 24.64409 | 28492 ft | 441 kts | 233° |
| 2026-04-14 09:25 | 43.89806 | 24.61058 | 28947 ft | 439 kts | 233° |
| 2026-04-14 09:25 | 43.87941 | 24.57726 | 29422 ft | 436 kts | 233° |
| 2026-04-14 09:25 | 43.86084 | 24.54410 | 29869 ft | 434 kts | 233° |
| 2026-04-14 09:25 | 43.84237 | 24.51116 | 30306 ft | 432 kts | 233° |
| 2026-04-14 09:26 | 43.82391 | 24.47828 | 30651 ft | 430 kts | 233° |
| 2026-04-14 09:26 | 43.80574 | 24.44594 | 30939 ft | 430 kts | 233° |
| 2026-04-14 09:26 | 43.78729 | 24.41314 | 31210 ft | 430 kts | 233° |
| 2026-04-14 09:26 | 43.76882 | 24.38035 | 31510 ft | 430 kts | 233° |
| 2026-04-14 09:27 | 43.75043 | 24.34771 | 31826 ft | 429 kts | 233° |
| 2026-04-14 09:27 | 43.73231 | 24.31560 | 32127 ft | 428 kts | 233° |
| 2026-04-14 09:27 | 43.71393 | 24.28307 | 32411 ft | 428 kts | 233° |
| 2026-04-14 09:27 | 43.69542 | 24.25070 | 32689 ft | 428 kts | 232° |
| 2026-04-14 09:28 | 43.67566 | 24.21983 | 32985 ft | 428 kts | 227° |
| 2026-04-14 09:28 | 43.65404 | 24.19201 | 33289 ft | 428 kts | 221° |
| 2026-04-14 09:28 | 43.63040 | 24.16688 | 33573 ft | 429 kts | 218° |
| 2026-04-14 09:28 | 43.60585 | 24.14329 | 33836 ft | 429 kts | 217° |
| 2026-04-14 09:29 | 43.58130 | 24.11974 | 34090 ft | 429 kts | 218° |
| 2026-04-14 09:29 | 43.55741 | 24.09602 | 34344 ft | 428 kts | 218° |
| 2026-04-14 09:29 | 43.53342 | 24.07131 | 34583 ft | 427 kts | 219° |
| 2026-04-14 09:29 | 43.51011 | 24.04668 | 34777 ft | 427 kts | 220° |
| 2026-04-14 09:30 | 43.48664 | 24.02156 | 34977 ft | 427 kts | 220° |
| 2026-04-14 09:30 | 43.46325 | 23.99640 | 35205 ft | 426 kts | 220° |
| 2026-04-14 09:30 | 43.43981 | 23.97122 | 35404 ft | 426 kts | 220° |
| 2026-04-14 09:30 | 43.41634 | 23.94605 | 35611 ft | 426 kts | 220° |
| 2026-04-14 09:31 | 43.39288 | 23.92095 | 35814 ft | 426 kts | 220° |
| 2026-04-14 09:31 | 43.36973 | 23.89624 | 36002 ft | 426 kts | 220° |
| 2026-04-14 09:31 | 43.34630 | 23.87127 | 36174 ft | 426 kts | 220° |
| 2026-04-14 09:31 | 43.32270 | 23.84612 | 36175 ft | 429 kts | 220° |
| 2026-04-14 09:32 | 43.27558 | 23.79607 | 36184 ft | 426 kts | 219° |
| 2026-04-14 09:33 | 43.20500 | 23.72313 | 36187 ft | 423 kts | 219° |
| 2026-04-14 09:33 | 43.15797 | 23.67488 | 36184 ft | 421 kts | 219° |
| 2026-04-14 09:34 | 43.11135 | 23.62701 | 36188 ft | 420 kts | 219° |
| 2026-04-14 09:34 | 43.06454 | 23.57896 | 36184 ft | 420 kts | 219° |
| 2026-04-14 09:35 | 43.01768 | 23.53094 | 36187 ft | 420 kts | 219° |
| 2026-04-14 09:35 | 42.97098 | 23.48317 | 36185 ft | 421 kts | 219° |
| 2026-04-14 09:36 | 42.92400 | 23.43522 | 36191 ft | 422 kts | 219° |
| 2026-04-14 09:36 | 42.87688 | 23.38722 | 36200 ft | 422 kts | 219° |
| 2026-04-14 09:37 | 42.82988 | 23.33944 | 36203 ft | 423 kts | 219° |
| 2026-04-14 09:37 | 42.78284 | 23.29171 | 36204 ft | 423 kts | 219° |
| 2026-04-14 09:38 | 42.73550 | 23.24376 | 36210 ft | 423 kts | 219° |
| 2026-04-14 09:38 | 42.68815 | 23.19590 | 36197 ft | 424 kts | 219° |
| 2026-04-14 09:39 | 42.64096 | 23.14829 | 36199 ft | 424 kts | 219° |
| 2026-04-14 09:39 | 42.59354 | 23.10055 | 36176 ft | 424 kts | 219° |
| 2026-04-14 09:40 | 42.54624 | 23.05302 | 36173 ft | 424 kts | 219° |
| 2026-04-14 09:40 | 42.49889 | 23.00553 | 36164 ft | 424 kts | 219° |
| 2026-04-14 09:41 | 42.45135 | 22.95794 | 36153 ft | 424 kts | 219° |
| 2026-04-14 09:41 | 42.40406 | 22.91068 | 36136 ft | 423 kts | 219° |
| 2026-04-14 09:42 | 42.36462 | 22.87134 | 36146 ft | 423 kts | 219° |
| 2026-04-14 09:42 | 42.31711 | 22.82405 | 36152 ft | 423 kts | 219° |
| 2026-04-14 09:43 | 42.26995 | 22.77717 | 36144 ft | 422 kts | 219° |
| 2026-04-14 09:43 | 42.22257 | 22.73017 | 36142 ft | 421 kts | 219° |
| 2026-04-14 09:44 | 42.17551 | 22.68356 | 36151 ft | 420 kts | 219° |
| 2026-04-14 09:44 | 42.12852 | 22.63712 | 36150 ft | 420 kts | 218° |
| 2026-04-14 09:45 | 42.07812 | 22.59661 | 36133 ft | 426 kts | 201° |
| 2026-04-14 09:45 | 42.04873 | 22.58904 | 36179 ft | 432 kts | 190° |
| 2026-04-14 09:45 | 42.01861 | 22.58540 | 36143 ft | 433 kts | 191° |
| 2026-04-14 09:45 | 41.98979 | 22.57730 | 36126 ft | 424 kts | 206° |
| 2026-04-14 09:46 | 41.96337 | 22.56021 | 36159 ft | 420 kts | 211° |
| 2026-04-14 09:46 | 41.91041 | 22.52697 | 36158 ft | 424 kts | 202° |
| 2026-04-14 09:47 | 41.85334 | 22.50557 | 36163 ft | 426 kts | 198° |
| 2026-04-14 09:47 | 41.79588 | 22.48556 | 36175 ft | 424 kts | 199° |
| 2026-04-14 09:48 | 41.73927 | 22.46422 | 36172 ft | 424 kts | 200° |
| 2026-04-14 09:48 | 41.68278 | 22.44205 | 36158 ft | 423 kts | 200° |
| 2026-04-14 09:49 | 41.62630 | 22.41977 | 36168 ft | 422 kts | 200° |
| 2026-04-14 09:49 | 41.57013 | 22.39768 | 36174 ft | 421 kts | 200° |
| 2026-04-14 09:50 | 41.51381 | 22.37560 | 36169 ft | 421 kts | 200° |
| 2026-04-14 09:50 | 41.45793 | 22.35375 | 36178 ft | 419 kts | 200° |
| 2026-04-14 09:51 | 41.40194 | 22.33189 | 36175 ft | 419 kts | 201° |
| 2026-04-14 09:51 | 41.34597 | 22.31007 | 36168 ft | 418 kts | 201° |
| 2026-04-14 09:52 | 41.29052 | 22.28849 | 36171 ft | 417 kts | 201° |
| 2026-04-14 09:52 | 41.23473 | 22.26681 | 36191 ft | 416 kts | 201° |
| 2026-04-14 09:53 | 41.17794 | 22.25256 | 36155 ft | 430 kts | 179° |
| 2026-04-14 09:53 | 41.14864 | 22.26326 | 36196 ft | 443 kts | 162° |
| 2026-04-14 09:53 | 41.12123 | 22.28289 | 36189 ft | 453 kts | 152° |
| 2026-04-14 09:54 | 41.07232 | 22.33740 | 36191 ft | 464 kts | 144° |
| 2026-04-14 09:54 | 41.02392 | 22.39419 | 35965 ft | 465 kts | 148° |
| 2026-04-14 09:54 | 40.99882 | 22.42034 | 35717 ft | 462 kts | 150° |
| 2026-04-14 09:55 | 40.97327 | 22.44612 | 35469 ft | 460 kts | 150° |
| 2026-04-14 09:55 | 40.94780 | 22.47195 | 35219 ft | 461 kts | 150° |
| 2026-04-14 09:55 | 40.92234 | 22.49819 | 34976 ft | 462 kts | 149° |
| 2026-04-14 09:55 | 40.89713 | 22.52465 | 34733 ft | 459 kts | 149° |
| 2026-04-14 09:56 | 40.87264 | 22.55067 | 34486 ft | 457 kts | 149° |
| 2026-04-14 09:56 | 40.84777 | 22.57719 | 34254 ft | 460 kts | 149° |
| 2026-04-14 09:56 | 40.82266 | 22.60395 | 34004 ft | 469 kts | 149° |
| 2026-04-14 09:56 | 40.79690 | 22.63134 | 33741 ft | 475 kts | 149° |
| 2026-04-14 09:57 | 40.77112 | 22.65882 | 33477 ft | 475 kts | 149° |
| 2026-04-14 09:57 | 40.74537 | 22.68626 | 33205 ft | 476 kts | 150° |
| 2026-04-14 09:57 | 40.71975 | 22.71352 | 32941 ft | 476 kts | 150° |
| 2026-04-14 09:57 | 40.69388 | 22.74101 | 32672 ft | 475 kts | 150° |
| 2026-04-14 09:58 | 40.66839 | 22.76803 | 32413 ft | 475 kts | 150° |
| 2026-04-14 09:58 | 40.64259 | 22.79536 | 32152 ft | 474 kts | 150° |
| 2026-04-14 09:58 | 40.61683 | 22.82260 | 31892 ft | 474 kts | 151° |
| 2026-04-14 09:58 | 40.59111 | 22.84977 | 31638 ft | 474 kts | 151° |
| 2026-04-14 09:59 | 40.56540 | 22.87690 | 31061 ft | 473 kts | 151° |
| 2026-04-14 09:59 | 40.53994 | 22.90375 | 30335 ft | 473 kts | 152° |
| 2026-04-14 09:59 | 40.51410 | 22.93096 | 29423 ft | 474 kts | 151° |
| 2026-04-14 09:59 | 40.48842 | 22.95795 | 28549 ft | 467 kts | 151° |
| 2026-04-14 10:00 | 40.46231 | 22.98187 | 27696 ft | 444 kts | 162° |
| 2026-04-14 10:00 | 40.43468 | 22.99575 | 26794 ft | 421 kts | 174° |
| 2026-04-14 10:00 | 40.40654 | 23.00411 | 26198 ft | 408 kts | 176° |
| 2026-04-14 10:00 | 40.37847 | 23.01175 | 25573 ft | 414 kts | 175° |
| 2026-04-14 10:01 | 40.34976 | 23.02124 | 24975 ft | 436 kts | 171° |
| 2026-04-14 10:01 | 40.32018 | 23.03302 | 24285 ft | 452 kts | 169° |
| 2026-04-14 10:01 | 40.29035 | 23.04592 | 23575 ft | 448 kts | 167° |
| 2026-04-14 10:01 | 40.26092 | 23.05854 | 22825 ft | 442 kts | 168° |
| 2026-04-14 10:02 | 40.23197 | 23.07036 | 22161 ft | 436 kts | 168° |
| 2026-04-14 10:02 | 40.20311 | 23.08154 | 21494 ft | 429 kts | 169° |
| 2026-04-14 10:02 | 40.17457 | 23.09213 | 20850 ft | 424 kts | 169° |
| 2026-04-14 10:02 | 40.14624 | 23.10234 | 20225 ft | 419 kts | 169° |
| 2026-04-14 10:03 | 40.11827 | 23.11228 | 19608 ft | 414 kts | 169° |
| 2026-04-14 10:03 | 40.09056 | 23.12206 | 18994 ft | 410 kts | 169° |
| 2026-04-14 10:03 | 40.06300 | 23.13178 | 18361 ft | 407 kts | 169° |
| 2026-04-14 10:03 | 40.03569 | 23.14143 | 17671 ft | 403 kts | 169° |
| 2026-04-14 10:04 | 40.00909 | 23.15085 | 17029 ft | 399 kts | 169° |
| 2026-04-14 10:04 | 39.98237 | 23.16032 | 16429 ft | 395 kts | 169° |
| 2026-04-14 10:04 | 39.95598 | 23.16967 | 15812 ft | 391 kts | 169° |
| 2026-04-14 10:04 | 39.92983 | 23.17893 | 15217 ft | 387 kts | 169° |
| 2026-04-14 10:05 | 39.90416 | 23.18800 | 14635 ft | 384 kts | 169° |
| 2026-04-14 10:05 | 39.87837 | 23.19711 | 14045 ft | 381 kts | 169° |
| 2026-04-14 10:05 | 39.85279 | 23.20612 | 13387 ft | 378 kts | 169° |
| 2026-04-14 10:05 | 39.82771 | 23.21495 | 12776 ft | 376 kts | 169° |
| 2026-04-14 10:06 | 39.80250 | 23.22381 | 12172 ft | 372 kts | 169° |
| 2026-04-14 10:06 | 39.77754 | 23.23258 | 11582 ft | 369 kts | 168° |
| 2026-04-14 10:06 | 39.75302 | 23.24122 | 11385 ft | 356 kts | 168° |
| 2026-04-14 10:06 | 39.72981 | 23.24944 | 11205 ft | 340 kts | 168° |
| 2026-04-14 10:07 | 39.70760 | 23.25733 | 11040 ft | 320 kts | 168° |
| 2026-04-14 10:07 | 39.68665 | 23.26475 | 10910 ft | 305 kts | 169° |
| 2026-04-14 10:07 | 39.66655 | 23.27182 | 10788 ft | 293 kts | 169° |
| 2026-04-14 10:07 | 39.64717 | 23.27859 | 10689 ft | 295 kts | 169° |
| 2026-04-14 10:08 | 39.62698 | 23.28558 | 10581 ft | 301 kts | 169° |
| 2026-04-14 10:08 | 39.60699 | 23.29254 | 10440 ft | 294 kts | 168° |
| 2026-04-14 10:08 | 39.58751 | 23.29936 | 10311 ft | 285 kts | 168° |
| 2026-04-14 10:08 | 39.56855 | 23.30601 | 10172 ft | 278 kts | 168° |
| 2026-04-14 10:09 | 39.55004 | 23.31248 | 9858 ft | 276 kts | 168° |
| 2026-04-14 10:09 | 39.53156 | 23.31892 | 9574 ft | 274 kts | 168° |
| 2026-04-14 10:09 | 39.51316 | 23.32533 | 9277 ft | 272 kts | 168° |
| 2026-04-14 10:09 | 39.49492 | 23.33169 | 8987 ft | 270 kts | 168° |
| 2026-04-14 10:10 | 39.47692 | 23.33796 | 8690 ft | 269 kts | 168° |
| 2026-04-14 10:10 | 39.45882 | 23.34426 | 8400 ft | 267 kts | 168° |
| 2026-04-14 10:10 | 39.44091 | 23.35051 | 8117 ft | 266 kts | 167° |
| 2026-04-14 10:10 | 39.42325 | 23.35663 | 7814 ft | 265 kts | 167° |
| 2026-04-14 10:11 | 39.40549 | 23.36281 | 7536 ft | 264 kts | 167° |
| 2026-04-14 10:11 | 39.38779 | 23.36898 | 7263 ft | 262 kts | 167° |
| 2026-04-14 10:11 | 39.37013 | 23.37513 | 6988 ft | 261 kts | 167° |
| 2026-04-14 10:11 | 39.35264 | 23.38122 | 6704 ft | 260 kts | 167° |
| 2026-04-14 10:12 | 39.33542 | 23.38721 | 6422 ft | 258 kts | 167° |
| 2026-04-14 10:12 | 39.31802 | 23.39326 | 6132 ft | 257 kts | 167° |
| 2026-04-14 10:12 | 39.30077 | 23.39925 | 5851 ft | 255 kts | 166° |
| 2026-04-14 10:12 | 39.28362 | 23.40521 | 5575 ft | 253 kts | 166° |
| 2026-04-14 10:13 | 39.26663 | 23.41109 | 5310 ft | 251 kts | 166° |
| 2026-04-14 10:13 | 39.25001 | 23.41686 | 5050 ft | 250 kts | 166° |
| 2026-04-14 10:13 | 39.23329 | 23.42265 | 4773 ft | 248 kts | 166° |
| 2026-04-14 10:13 | 39.21655 | 23.42844 | 4459 ft | 249 kts | 166° |
| 2026-04-14 10:14 | 39.20067 | 23.43757 | 4071 ft | 253 kts | 141° |
| 2026-04-14 10:14 | 39.19078 | 23.45578 | 3928 ft | 250 kts | 112° |
| 2026-04-14 10:14 | 39.18663 | 23.47727 | 3810 ft | 246 kts | 99° |
| 2026-04-14 10:14 | 39.18532 | 23.49880 | 3756 ft | 234 kts | 95° |
| 2026-04-14 10:15 | 39.18456 | 23.51922 | 3665 ft | 221 kts | 95° |
| 2026-04-14 10:15 | 39.18387 | 23.53835 | 3571 ft | 206 kts | 95° |
| 2026-04-14 10:15 | 39.18182 | 23.55583 | 3451 ft | 191 kts | 116° |
| 2026-04-14 10:15 | 39.17299 | 23.56654 | 3314 ft | 173 kts | 162° |
| 2026-04-14 10:16 | 39.16098 | 23.56796 | 2942 ft | 176 kts | 182° |
| 2026-04-14 10:16 | 39.14934 | 23.56349 | 2628 ft | 175 kts | 214° |
| 2026-04-14 10:16 | 39.14075 | 23.55258 | 2495 ft | 179 kts | 226° |
| 2026-04-14 10:16 | 39.13243 | 23.54009 | 2186 ft | 186 kts | 228° |
| 2026-04-14 10:17 | 39.12417 | 23.52751 | 1943 ft | 185 kts | 231° |
| 2026-04-14 10:17 | 39.11918 | 23.51247 | 1659 ft | 183 kts | 270° |
| 2026-04-14 10:17 | 39.12398 | 23.49772 | 1486 ft | 188 kts | 315° |
| 2026-04-14 10:17 | 39.13606 | 23.49044 | 804 ft | 194 kts | 1° |
| 2026-04-14 10:18 | 39.15932 | 23.49665 | 366 ft | 152 kts | 7° |
| 2026-04-14 10:18 | 39.16916 | 23.50007 | 89 ft | 136 kts | 19° |
| 2026-04-14 10:18 | 39.17702 | 23.50362 | 60 ft | 99 kts | 20° |
| 2026-04-14 10:19 | 39.18079 | 23.50529 | 70 ft | 30 kts | 18° |
| 2026-04-14 10:19 | 39.18278 | 23.50615 | 71 ft | 29 kts | 18° |
| 2026-04-14 10:19 | 39.18421 | 23.50676 | 71 ft | 14 kts | 13° |
| 2026-04-14 10:19 | 39.18499 | 23.50701 | 67 ft | 9 kts | 66° |
| 2026-04-14 10:20 | 39.18493 | 23.50742 | 71 ft | 2 kts | 139° |
| 2026-04-14 10:20 | 39.18479 | 23.50734 | 71 ft | 5 kts | 214° |
| 2026-04-14 10:20 | 39.18424 | 23.50685 | 72 ft | 14 kts | 208° |
| 2026-04-14 10:20 | 39.18302 | 23.50629 | 70 ft | 23 kts | 199° |
| 2026-04-14 10:21 | 39.18127 | 23.50552 | 70 ft | 29 kts | 199° |
| 2026-04-14 10:21 | 39.17977 | 23.50470 | 67 ft | 21 kts | 224° |
| 2026-04-14 10:21 | 39.17965 | 23.50354 | 61 ft | 7 kts | 305° |
| 2026-04-14 10:21 | 39.17987 | 23.50300 | 68 ft | 7 kts | 291° |
| 2026-04-14 10:22 | 39.17991 | 23.50285 | 68 ft | 1 kts | 290° |
| 2026-04-14 10:22 | 39.17995 | 23.50271 | 60 ft | 1 kts | 290° |